sensor_id;sensor_type;location;lat;lon;timestamp;P1;durP1;ratioP1;P2;durP2;ratioP2
71164;SDS011;58859;55.132;-1.586;2023-08-21T00:00:04;1.30;;;0.65;;
71164;SDS011;58859;55.132;-1.586;2023-08-21T00:02:30;1.73;;;0.63;;
71164;SDS011;58859;55.132;-1.586;2023-08-21T00:04:56;2.88;;;0.80;;
71164;SDS011;58859;55.132;-1.586;2023-08-21T00:07:22;2.97;;;0.60;;
71164;SDS011;58859;55.132;-1.586;2023-08-21T00:09:47;5.40;;;1.15;;
71164;SDS011;58859;55.132;-1.586;2023-08-21T00:12:13;2.23;;;0.67;;
71164;SDS011;58859;55.132;-1.586;2023-08-21T00:14:38;2.50;;;0.73;;
71164;SDS011;58859;55.132;-1.586;2023-08-21T00:17:04;2.05;;;0.70;;
71164;SDS011;58859;55.132;-1.586;2023-08-21T00:19:30;2.87;;;0.67;;
71164;SDS011;58859;55.132;-1.586;2023-08-21T00:21:55;3.15;;;0.85;;
71164;SDS011;58859;55.132;-1.586;2023-08-21T00:24:21;1.93;;;0.80;;
71164;SDS011;58859;55.132;-1.586;2023-08-21T00:26:46;1.60;;;0.53;;
71164;SDS011;58859;55.132;-1.586;2023-08-21T00:29:12;2.80;;;0.67;;
71164;SDS011;58859;55.132;-1.586;2023-08-21T00:31:37;1.67;;;0.60;;
71164;SDS011;58859;55.132;-1.586;2023-08-21T00:34:03;2.63;;;0.57;;
71164;SDS011;58859;55.132;-1.586;2023-08-21T00:36:28;3.93;;;1.00;;
71164;SDS011;58859;55.132;-1.586;2023-08-21T00:38:54;2.63;;;0.70;;
71164;SDS011;58859;55.132;-1.586;2023-08-21T00:41:19;2.25;;;0.45;;
71164;SDS011;58859;55.132;-1.586;2023-08-21T00:43:44;1.27;;;0.70;;
71164;SDS011;58859;55.132;-1.586;2023-08-21T00:46:10;1.97;;;0.60;;
71164;SDS011;58859;55.132;-1.586;2023-08-21T00:48:35;1.07;;;0.70;;
71164;SDS011;58859;55.132;-1.586;2023-08-21T00:51:02;3.55;;;0.80;;
71164;SDS011;58859;55.132;-1.586;2023-08-21T00:53:28;4.72;;;0.82;;
71164;SDS011;58859;55.132;-1.586;2023-08-21T00:55:54;0.80;;;0.43;;
71164;SDS011;58859;55.132;-1.586;2023-08-21T00:58:19;1.03;;;0.53;;
71164;SDS011;58859;55.132;-1.586;2023-08-21T01:00:45;2.65;;;0.60;;
71164;SDS011;58859;55.132;-1.586;2023-08-21T01:03:13;2.33;;;0.47;;
71164;SDS011;58859;55.132;-1.586;2023-08-21T01:05:38;1.38;;;0.60;;
71164;SDS011;58859;55.132;-1.586;2023-08-21T01:08:10;2.83;;;0.43;;
71164;SDS011;58859;55.132;-1.586;2023-08-21T01:15:50;4.00;;;0.50;;
71164;SDS011;58859;55.132;-1.586;2023-08-21T01:18:17;2.93;;;0.60;;
71164;SDS011;58859;55.132;-1.586;2023-08-21T01:20:44;1.15;;;0.43;;
71164;SDS011;58859;55.132;-1.586;2023-08-21T01:23:26;3.17;;;0.90;;
71164;SDS011;58859;55.132;-1.586;2023-08-21T01:25:55;3.15;;;0.60;;
71164;SDS011;58859;55.132;-1.586;2023-08-21T01:28:20;2.10;;;0.80;;
71164;SDS011;58859;55.132;-1.586;2023-08-21T01:30:45;1.83;;;0.87;;
71164;SDS011;58859;55.132;-1.586;2023-08-21T01:33:15;2.67;;;0.70;;
71164;SDS011;58859;55.132;-1.586;2023-08-21T01:35:42;4.47;;;1.00;;
71164;SDS011;58859;55.132;-1.586;2023-08-21T01:38:08;2.88;;;0.85;;
71164;SDS011;58859;55.132;-1.586;2023-08-21T01:40:33;1.20;;;0.50;;
71164;SDS011;58859;55.132;-1.586;2023-08-21T01:42:59;5.73;;;1.00;;
71164;SDS011;58859;55.132;-1.586;2023-08-21T01:45:24;2.75;;;0.80;;
71164;SDS011;58859;55.132;-1.586;2023-08-21T01:47:50;1.83;;;0.50;;
71164;SDS011;58859;55.132;-1.586;2023-08-21T01:50:15;1.63;;;0.80;;
71164;SDS011;58859;55.132;-1.586;2023-08-21T01:52:41;1.85;;;0.65;;
71164;SDS011;58859;55.132;-1.586;2023-08-21T01:55:07;3.27;;;0.50;;
71164;SDS011;58859;55.132;-1.586;2023-08-21T01:57:33;2.38;;;0.50;;
71164;SDS011;58859;55.132;-1.586;2023-08-21T01:59:58;1.20;;;0.60;;
71164;SDS011;58859;55.132;-1.586;2023-08-21T02:02:24;2.45;;;0.60;;
71164;SDS011;58859;55.132;-1.586;2023-08-21T02:04:49;2.80;;;0.70;;
71164;SDS011;58859;55.132;-1.586;2023-08-21T02:07:14;6.27;;;0.77;;
71164;SDS011;58859;55.132;-1.586;2023-08-21T02:09:40;2.33;;;0.50;;
71164;SDS011;58859;55.132;-1.586;2023-08-21T02:12:05;3.93;;;0.50;;
71164;SDS011;58859;55.132;-1.586;2023-08-21T02:14:31;2.30;;;0.60;;
71164;SDS011;58859;55.132;-1.586;2023-08-21T02:16:56;3.33;;;0.43;;
71164;SDS011;58859;55.132;-1.586;2023-08-21T02:19:22;4.10;;;1.13;;
71164;SDS011;58859;55.132;-1.586;2023-08-21T02:21:47;5.00;;;1.25;;
71164;SDS011;58859;55.132;-1.586;2023-08-21T02:24:13;3.13;;;0.67;;
71164;SDS011;58859;55.132;-1.586;2023-08-21T02:26:38;4.23;;;1.00;;
71164;SDS011;58859;55.132;-1.586;2023-08-21T02:29:04;3.33;;;0.77;;
71164;SDS011;58859;55.132;-1.586;2023-08-21T02:31:29;7.90;;;0.90;;
71164;SDS011;58859;55.132;-1.586;2023-08-21T02:33:54;2.37;;;0.60;;
71164;SDS011;58859;55.132;-1.586;2023-08-21T02:36:20;2.33;;;0.80;;
71164;SDS011;58859;55.132;-1.586;2023-08-21T02:38:45;2.60;;;0.63;;
71164;SDS011;58859;55.132;-1.586;2023-08-21T02:41:11;3.60;;;0.77;;
71164;SDS011;58859;55.132;-1.586;2023-08-21T02:43:36;2.28;;;0.90;;
71164;SDS011;58859;55.132;-1.586;2023-08-21T02:46:01;3.77;;;0.83;;
71164;SDS011;58859;55.132;-1.586;2023-08-21T02:48:27;2.23;;;0.57;;
71164;SDS011;58859;55.132;-1.586;2023-08-21T02:50:52;1.87;;;1.20;;
71164;SDS011;58859;55.132;-1.586;2023-08-21T02:53:18;3.58;;;0.80;;
71164;SDS011;58859;55.132;-1.586;2023-08-21T02:55:43;4.00;;;0.60;;
71164;SDS011;58859;55.132;-1.586;2023-08-21T02:58:09;5.63;;;0.70;;
71164;SDS011;58859;55.132;-1.586;2023-08-21T03:00:35;1.10;;;0.40;;
71164;SDS011;58859;55.132;-1.586;2023-08-21T03:03:01;1.77;;;0.68;;
71164;SDS011;58859;55.132;-1.586;2023-08-21T03:05:26;3.08;;;0.70;;
71164;SDS011;58859;55.132;-1.586;2023-08-21T03:07:51;3.60;;;0.90;;
71164;SDS011;58859;55.132;-1.586;2023-08-21T03:10:17;2.53;;;0.47;;
71164;SDS011;58859;55.132;-1.586;2023-08-21T03:12:43;2.60;;;0.70;;
71164;SDS011;58859;55.132;-1.586;2023-08-21T03:15:08;4.43;;;0.97;;
71164;SDS011;58859;55.132;-1.586;2023-08-21T03:17:34;7.23;;;0.80;;
71164;SDS011;58859;55.132;-1.586;2023-08-21T03:20:00;4.97;;;1.00;;
71164;SDS011;58859;55.132;-1.586;2023-08-21T03:22:25;3.50;;;1.27;;
71164;SDS011;58859;55.132;-1.586;2023-08-21T03:24:50;1.97;;;0.60;;
71164;SDS011;58859;55.132;-1.586;2023-08-21T03:27:16;2.95;;;0.55;;
71164;SDS011;58859;55.132;-1.586;2023-08-21T03:29:42;2.95;;;0.63;;
71164;SDS011;58859;55.132;-1.586;2023-08-21T03:32:14;1.75;;;0.50;;
71164;SDS011;58859;55.132;-1.586;2023-08-21T03:34:40;2.53;;;0.88;;
71164;SDS011;58859;55.132;-1.586;2023-08-21T03:37:06;3.50;;;0.67;;
71164;SDS011;58859;55.132;-1.586;2023-08-21T03:39:31;1.17;;;0.40;;
71164;SDS011;58859;55.132;-1.586;2023-08-21T03:41:56;10.70;;;1.08;;
71164;SDS011;58859;55.132;-1.586;2023-08-21T03:44:22;4.20;;;0.80;;
71164;SDS011;58859;55.132;-1.586;2023-08-21T03:46:47;6.47;;;0.57;;
71164;SDS011;58859;55.132;-1.586;2023-08-21T03:49:12;3.33;;;0.83;;
71164;SDS011;58859;55.132;-1.586;2023-08-21T03:51:38;5.77;;;0.80;;
71164;SDS011;58859;55.132;-1.586;2023-08-21T03:54:03;6.63;;;1.57;;
71164;SDS011;58859;55.132;-1.586;2023-08-21T03:56:29;1.33;;;0.40;;
71164;SDS011;58859;55.132;-1.586;2023-08-21T03:58:54;1.83;;;0.40;;
71164;SDS011;58859;55.132;-1.586;2023-08-21T04:01:21;3.90;;;0.95;;
71164;SDS011;58859;55.132;-1.586;2023-08-21T04:03:46;1.23;;;0.50;;
71164;SDS011;58859;55.132;-1.586;2023-08-21T04:06:11;0.77;;;0.50;;
71164;SDS011;58859;55.132;-1.586;2023-08-21T04:08:37;6.17;;;0.63;;
71164;SDS011;58859;55.132;-1.586;2023-08-21T04:11:02;3.85;;;0.85;;
71164;SDS011;58859;55.132;-1.586;2023-08-21T04:13:28;1.80;;;0.50;;
71164;SDS011;58859;55.132;-1.586;2023-08-21T04:15:53;3.00;;;0.40;;
71164;SDS011;58859;55.132;-1.586;2023-08-21T04:18:20;5.53;;;0.77;;
71164;SDS011;58859;55.132;-1.586;2023-08-21T04:20:49;4.87;;;1.07;;
71164;SDS011;58859;55.132;-1.586;2023-08-21T04:23:14;3.75;;;0.70;;
71164;SDS011;58859;55.132;-1.586;2023-08-21T04:25:40;2.83;;;0.63;;
71164;SDS011;58859;55.132;-1.586;2023-08-21T04:28:05;2.77;;;0.63;;
71164;SDS011;58859;55.132;-1.586;2023-08-21T04:30:32;3.00;;;0.73;;
71164;SDS011;58859;55.132;-1.586;2023-08-21T04:32:59;4.13;;;1.27;;
71164;SDS011;58859;55.132;-1.586;2023-08-21T04:35:25;3.85;;;0.60;;
71164;SDS011;58859;55.132;-1.586;2023-08-21T04:37:50;5.30;;;1.30;;
71164;SDS011;58859;55.132;-1.586;2023-08-21T04:40:16;4.63;;;1.50;;
71164;SDS011;58859;55.132;-1.586;2023-08-21T04:42:42;3.72;;;1.08;;
71164;SDS011;58859;55.132;-1.586;2023-08-21T04:45:09;3.38;;;0.75;;
71164;SDS011;58859;55.132;-1.586;2023-08-21T04:47:34;1.67;;;0.45;;
71164;SDS011;58859;55.132;-1.586;2023-08-21T04:50:00;1.73;;;0.67;;
71164;SDS011;58859;55.132;-1.586;2023-08-21T04:52:25;4.53;;;0.80;;
71164;SDS011;58859;55.132;-1.586;2023-08-21T04:54:51;4.57;;;0.95;;
71164;SDS011;58859;55.132;-1.586;2023-08-21T04:57:17;1.70;;;0.60;;
71164;SDS011;58859;55.132;-1.586;2023-08-21T04:59:45;2.75;;;0.80;;
71164;SDS011;58859;55.132;-1.586;2023-08-21T05:02:11;1.75;;;0.63;;
71164;SDS011;58859;55.132;-1.586;2023-08-21T05:04:37;3.83;;;0.95;;
71164;SDS011;58859;55.132;-1.586;2023-08-21T05:07:03;2.80;;;1.03;;
71164;SDS011;58859;55.132;-1.586;2023-08-21T05:09:29;3.13;;;0.90;;
71164;SDS011;58859;55.132;-1.586;2023-08-21T05:11:55;0.63;;;0.57;;
71164;SDS011;58859;55.132;-1.586;2023-08-21T05:14:21;4.63;;;0.97;;
71164;SDS011;58859;55.132;-1.586;2023-08-21T05:16:47;2.17;;;0.68;;
71164;SDS011;58859;55.132;-1.586;2023-08-21T05:19:14;4.55;;;1.02;;
71164;SDS011;58859;55.132;-1.586;2023-08-21T05:21:39;3.20;;;0.80;;
71164;SDS011;58859;55.132;-1.586;2023-08-21T05:24:05;4.27;;;1.07;;
71164;SDS011;58859;55.132;-1.586;2023-08-21T05:26:30;4.70;;;1.17;;
71164;SDS011;58859;55.132;-1.586;2023-08-21T05:28:56;4.13;;;1.33;;
71164;SDS011;58859;55.132;-1.586;2023-08-21T05:31:21;5.82;;;0.85;;
71164;SDS011;58859;55.132;-1.586;2023-08-21T05:33:47;6.30;;;1.03;;
71164;SDS011;58859;55.132;-1.586;2023-08-21T05:36:12;2.53;;;1.50;;
71164;SDS011;58859;55.132;-1.586;2023-08-21T05:38:38;3.77;;;1.03;;
71164;SDS011;58859;55.132;-1.586;2023-08-21T05:41:03;3.10;;;0.60;;
71164;SDS011;58859;55.132;-1.586;2023-08-21T05:43:29;3.55;;;0.88;;
71164;SDS011;58859;55.132;-1.586;2023-08-21T05:45:55;4.50;;;0.88;;
71164;SDS011;58859;55.132;-1.586;2023-08-21T05:48:21;3.93;;;0.90;;
71164;SDS011;58859;55.132;-1.586;2023-08-21T05:50:50;1.57;;;0.73;;
71164;SDS011;58859;55.132;-1.586;2023-08-21T05:53:16;2.60;;;0.75;;
71164;SDS011;58859;55.132;-1.586;2023-08-21T05:55:41;3.80;;;0.80;;
71164;SDS011;58859;55.132;-1.586;2023-08-21T05:58:07;5.23;;;1.20;;
71164;SDS011;58859;55.132;-1.586;2023-08-21T06:00:33;2.88;;;0.90;;
71164;SDS011;58859;55.132;-1.586;2023-08-21T06:02:58;3.35;;;0.77;;
71164;SDS011;58859;55.132;-1.586;2023-08-21T06:05:24;3.53;;;0.87;;
71164;SDS011;58859;55.132;-1.586;2023-08-21T06:07:49;3.77;;;0.90;;
71164;SDS011;58859;55.132;-1.586;2023-08-21T06:10:14;1.83;;;1.00;;
71164;SDS011;58859;55.132;-1.586;2023-08-21T06:12:40;3.63;;;1.20;;
71164;SDS011;58859;55.132;-1.586;2023-08-21T06:15:06;4.47;;;1.10;;
71164;SDS011;58859;55.132;-1.586;2023-08-21T06:17:36;1.10;;;0.73;;
71164;SDS011;58859;55.132;-1.586;2023-08-21T06:20:03;8.48;;;1.65;;
71164;SDS011;58859;55.132;-1.586;2023-08-21T06:22:34;2.55;;;0.98;;
71164;SDS011;58859;55.132;-1.586;2023-08-21T06:25:00;4.07;;;1.55;;
71164;SDS011;58859;55.132;-1.586;2023-08-21T06:27:26;2.92;;;0.90;;
71164;SDS011;58859;55.132;-1.586;2023-08-21T06:29:52;3.23;;;0.90;;
71164;SDS011;58859;55.132;-1.586;2023-08-21T06:32:17;2.72;;;0.70;;
71164;SDS011;58859;55.132;-1.586;2023-08-21T06:34:43;4.07;;;0.77;;
71164;SDS011;58859;55.132;-1.586;2023-08-21T06:37:08;5.37;;;1.13;;
71164;SDS011;58859;55.132;-1.586;2023-08-21T06:39:34;2.55;;;0.85;;
71164;SDS011;58859;55.132;-1.586;2023-08-21T06:42:00;2.90;;;0.60;;
71164;SDS011;58859;55.132;-1.586;2023-08-21T06:44:25;0.90;;;0.40;;
71164;SDS011;58859;55.132;-1.586;2023-08-21T06:46:51;5.67;;;0.90;;
71164;SDS011;58859;55.132;-1.586;2023-08-21T06:49:16;2.33;;;0.90;;
71164;SDS011;58859;55.132;-1.586;2023-08-21T06:51:41;1.80;;;0.50;;
71164;SDS011;58859;55.132;-1.586;2023-08-21T06:54:07;1.63;;;0.60;;
71164;SDS011;58859;55.132;-1.586;2023-08-21T06:56:32;2.10;;;0.40;;
71164;SDS011;58859;55.132;-1.586;2023-08-21T06:58:58;3.80;;;1.20;;
71164;SDS011;58859;55.132;-1.586;2023-08-21T07:01:23;1.40;;;0.53;;
71164;SDS011;58859;55.132;-1.586;2023-08-21T07:03:48;0.97;;;0.50;;
71164;SDS011;58859;55.132;-1.586;2023-08-21T07:06:14;2.47;;;0.50;;
71164;SDS011;58859;55.132;-1.586;2023-08-21T07:08:39;3.15;;;0.82;;
71164;SDS011;58859;55.132;-1.586;2023-08-21T07:11:06;4.00;;;0.80;;
71164;SDS011;58859;55.132;-1.586;2023-08-21T07:13:33;6.13;;;0.50;;
71164;SDS011;58859;55.132;-1.586;2023-08-21T07:15:59;2.05;;;0.73;;
71164;SDS011;58859;55.132;-1.586;2023-08-21T07:18:27;2.90;;;0.65;;
71164;SDS011;58859;55.132;-1.586;2023-08-21T07:20:53;5.37;;;1.10;;
71164;SDS011;58859;55.132;-1.586;2023-08-21T07:23:19;3.08;;;0.60;;
71164;SDS011;58859;55.132;-1.586;2023-08-21T07:25:44;4.82;;;0.60;;
71164;SDS011;58859;55.132;-1.586;2023-08-21T07:28:10;2.40;;;0.50;;
71164;SDS011;58859;55.132;-1.586;2023-08-21T07:30:38;1.50;;;0.80;;
71164;SDS011;58859;55.132;-1.586;2023-08-21T07:33:04;2.45;;;0.60;;
71164;SDS011;58859;55.132;-1.586;2023-08-21T07:35:30;2.75;;;0.75;;
71164;SDS011;58859;55.132;-1.586;2023-08-21T07:37:57;1.27;;;0.43;;
71164;SDS011;58859;55.132;-1.586;2023-08-21T07:40:23;3.95;;;0.73;;
71164;SDS011;58859;55.132;-1.586;2023-08-21T07:42:48;2.10;;;0.60;;
71164;SDS011;58859;55.132;-1.586;2023-08-21T07:45:14;2.57;;;0.80;;
71164;SDS011;58859;55.132;-1.586;2023-08-21T07:47:39;3.50;;;0.60;;
71164;SDS011;58859;55.132;-1.586;2023-08-21T07:50:08;2.70;;;0.55;;
71164;SDS011;58859;55.132;-1.586;2023-08-21T07:52:34;2.90;;;1.05;;
71164;SDS011;58859;55.132;-1.586;2023-08-21T07:55:00;1.92;;;0.70;;
71164;SDS011;58859;55.132;-1.586;2023-08-21T07:57:29;3.92;;;0.70;;
71164;SDS011;58859;55.132;-1.586;2023-08-21T07:59:55;2.60;;;0.60;;
71164;SDS011;58859;55.132;-1.586;2023-08-21T08:02:21;4.20;;;0.60;;
71164;SDS011;58859;55.132;-1.586;2023-08-21T08:04:46;1.50;;;0.40;;
71164;SDS011;58859;55.132;-1.586;2023-08-21T08:07:12;2.03;;;0.60;;
71164;SDS011;58859;55.132;-1.586;2023-08-21T08:09:38;1.00;;;0.40;;
71164;SDS011;58859;55.132;-1.586;2023-08-21T08:12:04;1.23;;;0.40;;
71164;SDS011;58859;55.132;-1.586;2023-08-21T08:14:30;4.43;;;0.40;;
71164;SDS011;58859;55.132;-1.586;2023-08-21T08:16:55;1.83;;;0.40;;
71164;SDS011;58859;55.132;-1.586;2023-08-21T08:19:21;2.17;;;0.40;;
71164;SDS011;58859;55.132;-1.586;2023-08-21T08:21:46;3.20;;;0.47;;
71164;SDS011;58859;55.132;-1.586;2023-08-21T08:24:12;1.70;;;0.30;;
71164;SDS011;58859;55.132;-1.586;2023-08-21T08:26:37;1.60;;;0.30;;
71164;SDS011;58859;55.132;-1.586;2023-08-21T08:29:03;1.00;;;0.25;;
71164;SDS011;58859;55.132;-1.586;2023-08-21T08:31:30;0.85;;;0.17;;
71164;SDS011;58859;55.132;-1.586;2023-08-21T08:33:55;2.97;;;0.60;;
71164;SDS011;58859;55.132;-1.586;2023-08-21T08:36:21;1.05;;;0.45;;
71164;SDS011;58859;55.132;-1.586;2023-08-21T08:38:47;0.27;;;0.20;;
71164;SDS011;58859;55.132;-1.586;2023-08-21T08:44:07;1.52;;;0.30;;
71164;SDS011;58859;55.132;-1.586;2023-08-21T08:46:33;0.20;;;0.13;;
71164;SDS011;58859;55.132;-1.586;2023-08-21T08:49:00;1.30;;;0.22;;
71164;SDS011;58859;55.132;-1.586;2023-08-21T08:51:28;1.50;;;0.20;;
71164;SDS011;58859;55.132;-1.586;2023-08-21T08:53:55;2.33;;;0.30;;
71164;SDS011;58859;55.132;-1.586;2023-08-21T08:56:23;1.27;;;0.10;;
71164;SDS011;58859;55.132;-1.586;2023-08-21T08:58:48;1.07;;;0.50;;
71164;SDS011;58859;55.132;-1.586;2023-08-21T09:01:14;1.00;;;0.10;;
71164;SDS011;58859;55.132;-1.586;2023-08-21T09:03:40;0.30;;;0.10;;
71164;SDS011;58859;55.132;-1.586;2023-08-21T09:06:05;2.38;;;0.40;;
71164;SDS011;58859;55.132;-1.586;2023-08-21T09:08:31;2.73;;;0.40;;
71164;SDS011;58859;55.132;-1.586;2023-08-21T09:10:56;1.57;;;0.20;;
71164;SDS011;58859;55.132;-1.586;2023-08-21T09:13:27;1.80;;;0.10;;
71164;SDS011;58859;55.132;-1.586;2023-08-21T09:15:53;0.60;;;0.20;;
71164;SDS011;58859;55.132;-1.586;2023-08-21T09:18:20;0.40;;;0.10;;
71164;SDS011;58859;55.132;-1.586;2023-08-21T09:20:46;2.13;;;0.17;;
71164;SDS011;58859;55.132;-1.586;2023-08-21T09:23:16;0.75;;;0.08;;
71164;SDS011;58859;55.132;-1.586;2023-08-21T09:25:46;0.75;;;0.10;;
71164;SDS011;58859;55.132;-1.586;2023-08-21T09:28:14;0.20;;;0.10;;
71164;SDS011;58859;55.132;-1.586;2023-08-21T09:30:44;1.77;;;0.30;;
71164;SDS011;58859;55.132;-1.586;2023-08-21T09:33:16;1.85;;;0.10;;
71164;SDS011;58859;55.132;-1.586;2023-08-21T09:35:43;1.38;;;0.20;;
71164;SDS011;58859;55.132;-1.586;2023-08-21T09:38:08;0.95;;;0.28;;
71164;SDS011;58859;55.132;-1.586;2023-08-21T09:40:38;0.20;;;0.00;;
71164;SDS011;58859;55.132;-1.586;2023-08-21T09:43:05;1.08;;;0.10;;
71164;SDS011;58859;55.132;-1.586;2023-08-21T09:45:31;0.20;;;0.10;;
71164;SDS011;58859;55.132;-1.586;2023-08-21T09:47:58;0.10;;;0.10;;
71164;SDS011;58859;55.132;-1.586;2023-08-21T09:50:24;2.00;;;0.20;;
71164;SDS011;58859;55.132;-1.586;2023-08-21T09:52:50;1.20;;;0.30;;
71164;SDS011;58859;55.132;-1.586;2023-08-21T09:55:16;0.95;;;0.20;;
71164;SDS011;58859;55.132;-1.586;2023-08-21T09:57:43;1.03;;;0.10;;
71164;SDS011;58859;55.132;-1.586;2023-08-21T10:00:09;1.05;;;0.10;;
71164;SDS011;58859;55.132;-1.586;2023-08-21T10:02:45;0.10;;;0.00;;
71164;SDS011;58859;55.132;-1.586;2023-08-21T10:05:19;2.00;;;0.13;;
71164;SDS011;58859;55.132;-1.586;2023-08-21T10:07:48;0.10;;;0.10;;
71164;SDS011;58859;55.132;-1.586;2023-08-21T10:10:14;0.70;;;0.20;;
71164;SDS011;58859;55.132;-1.586;2023-08-21T10:12:40;1.45;;;0.10;;
71164;SDS011;58859;55.132;-1.586;2023-08-21T10:15:06;1.00;;;0.10;;
71164;SDS011;58859;55.132;-1.586;2023-08-21T10:17:36;0.63;;;0.10;;
71164;SDS011;58859;55.132;-1.586;2023-08-21T10:20:05;1.30;;;0.10;;
71164;SDS011;58859;55.132;-1.586;2023-08-21T10:23:05;0.22;;;0.10;;
71164;SDS011;58859;55.132;-1.586;2023-08-21T10:25:27;0.35;;;0.10;;
71164;SDS011;58859;55.132;-1.586;2023-08-21T10:27:55;0.40;;;0.00;;
71164;SDS011;58859;55.132;-1.586;2023-08-21T10:32:51;0.50;;;0.00;;
71164;SDS011;58859;55.132;-1.586;2023-08-21T10:35:28;0.23;;;0.00;;
71164;SDS011;58859;55.132;-1.586;2023-08-21T10:38:05;0.30;;;0.30;;
71164;SDS011;58859;55.132;-1.586;2023-08-21T10:40:31;1.10;;;0.10;;
71164;SDS011;58859;55.132;-1.586;2023-08-21T10:42:58;0.20;;;0.10;;
71164;SDS011;58859;55.132;-1.586;2023-08-21T10:45:24;0.17;;;0.17;;
71164;SDS011;58859;55.132;-1.586;2023-08-21T10:47:49;0.53;;;0.20;;
71164;SDS011;58859;55.132;-1.586;2023-08-21T10:50:15;1.45;;;0.20;;
71164;SDS011;58859;55.132;-1.586;2023-08-21T10:52:42;0.50;;;0.10;;
71164;SDS011;58859;55.132;-1.586;2023-08-21T10:55:13;1.92;;;0.17;;
71164;SDS011;58859;55.132;-1.586;2023-08-21T10:57:40;2.55;;;0.30;;
71164;SDS011;58859;55.132;-1.586;2023-08-21T11:00:07;2.05;;;0.10;;
71164;SDS011;58859;55.132;-1.586;2023-08-21T11:02:46;0.75;;;0.00;;
71164;SDS011;58859;55.132;-1.586;2023-08-21T11:05:13;0.40;;;0.03;;
71164;SDS011;58859;55.132;-1.586;2023-08-21T11:10:06;0.33;;;0.10;;
71164;SDS011;58859;55.132;-1.586;2023-08-21T11:12:33;0.20;;;0.10;;
71164;SDS011;58859;55.132;-1.586;2023-08-21T11:14:59;1.42;;;0.00;;
71164;SDS011;58859;55.132;-1.586;2023-08-21T11:17:24;0.43;;;0.10;;
71164;SDS011;58859;55.132;-1.586;2023-08-21T11:19:50;1.00;;;0.30;;
71164;SDS011;58859;55.132;-1.586;2023-08-21T11:22:17;0.38;;;0.05;;
71164;SDS011;58859;55.132;-1.586;2023-08-21T11:27:11;1.05;;;0.15;;
71164;SDS011;58859;55.132;-1.586;2023-08-21T11:29:43;2.57;;;0.20;;
71164;SDS011;58859;55.132;-1.586;2023-08-21T11:32:11;1.60;;;0.10;;
71164;SDS011;58859;55.132;-1.586;2023-08-21T11:34:48;1.05;;;0.10;;
71164;SDS011;58859;55.132;-1.586;2023-08-21T11:37:22;1.40;;;0.20;;
71164;SDS011;58859;55.132;-1.586;2023-08-21T11:39:54;0.98;;;0.25;;
71164;SDS011;58859;55.132;-1.586;2023-08-21T11:42:22;0.77;;;0.20;;
71164;SDS011;58859;55.132;-1.586;2023-08-21T11:44:54;0.28;;;0.20;;
71164;SDS011;58859;55.132;-1.586;2023-08-21T11:47:20;0.80;;;0.43;;
71164;SDS011;58859;55.132;-1.586;2023-08-21T11:49:46;1.33;;;0.10;;
71164;SDS011;58859;55.132;-1.586;2023-08-21T11:52:17;0.98;;;0.20;;
71164;SDS011;58859;55.132;-1.586;2023-08-21T11:54:46;0.73;;;0.00;;
71164;SDS011;58859;55.132;-1.586;2023-08-21T11:57:16;0.60;;;0.10;;
71164;SDS011;58859;55.132;-1.586;2023-08-21T11:59:42;2.07;;;0.27;;
71164;SDS011;58859;55.132;-1.586;2023-08-21T12:02:17;0.65;;;0.10;;
71164;SDS011;58859;55.132;-1.586;2023-08-21T12:04:44;0.47;;;0.28;;
71164;SDS011;58859;55.132;-1.586;2023-08-21T12:07:09;0.97;;;0.20;;
71164;SDS011;58859;55.132;-1.586;2023-08-21T12:09:36;0.10;;;0.10;;
71164;SDS011;58859;55.132;-1.586;2023-08-21T12:12:01;0.43;;;0.10;;
71164;SDS011;58859;55.132;-1.586;2023-08-21T12:14:27;1.10;;;0.25;;
71164;SDS011;58859;55.132;-1.586;2023-08-21T12:16:53;2.40;;;0.20;;
71164;SDS011;58859;55.132;-1.586;2023-08-21T12:19:19;0.20;;;0.03;;
71164;SDS011;58859;55.132;-1.586;2023-08-21T12:21:46;0.40;;;0.22;;
71164;SDS011;58859;55.132;-1.586;2023-08-21T12:24:12;0.20;;;0.10;;
71164;SDS011;58859;55.132;-1.586;2023-08-21T12:26:37;0.83;;;0.20;;
71164;SDS011;58859;55.132;-1.586;2023-08-21T12:29:03;0.47;;;0.17;;
71164;SDS011;58859;55.132;-1.586;2023-08-21T12:31:28;0.20;;;0.20;;
71164;SDS011;58859;55.132;-1.586;2023-08-21T12:33:54;0.85;;;0.50;;
71164;SDS011;58859;55.132;-1.586;2023-08-21T12:36:19;0.83;;;0.10;;
71164;SDS011;58859;55.132;-1.586;2023-08-21T12:38:45;0.77;;;0.20;;
71164;SDS011;58859;55.132;-1.586;2023-08-21T12:41:10;0.27;;;0.20;;
71164;SDS011;58859;55.132;-1.586;2023-08-21T12:43:36;1.45;;;0.20;;
71164;SDS011;58859;55.132;-1.586;2023-08-21T12:46:01;0.30;;;0.10;;
71164;SDS011;58859;55.132;-1.586;2023-08-21T12:48:27;0.43;;;0.20;;
71164;SDS011;58859;55.132;-1.586;2023-08-21T12:50:52;0.30;;;0.30;;
71164;SDS011;58859;55.132;-1.586;2023-08-21T12:53:18;2.88;;;0.28;;
71164;SDS011;58859;55.132;-1.586;2023-08-21T12:55:43;0.13;;;0.13;;
71164;SDS011;58859;55.132;-1.586;2023-08-21T12:58:09;0.10;;;0.10;;
71164;SDS011;58859;55.132;-1.586;2023-08-21T13:00:34;1.67;;;0.13;;
71164;SDS011;58859;55.132;-1.586;2023-08-21T13:03:00;1.23;;;0.10;;
71164;SDS011;58859;55.132;-1.586;2023-08-21T13:05:25;0.93;;;0.20;;
71164;SDS011;58859;55.132;-1.586;2023-08-21T13:07:51;1.75;;;0.15;;
71164;SDS011;58859;55.132;-1.586;2023-08-21T13:10:17;0.47;;;0.13;;
71164;SDS011;58859;55.132;-1.586;2023-08-21T13:12:43;1.77;;;0.13;;
71164;SDS011;58859;55.132;-1.586;2023-08-21T13:15:09;0.97;;;0.00;;
71164;SDS011;58859;55.132;-1.586;2023-08-21T13:17:35;0.53;;;0.10;;
71164;SDS011;58859;55.132;-1.586;2023-08-21T13:20:01;0.93;;;0.25;;
71164;SDS011;58859;55.132;-1.586;2023-08-21T13:22:27;0.10;;;0.10;;
71164;SDS011;58859;55.132;-1.586;2023-08-21T13:24:52;0.70;;;0.40;;
71164;SDS011;58859;55.132;-1.586;2023-08-21T13:27:18;1.43;;;0.20;;
71164;SDS011;58859;55.132;-1.586;2023-08-21T13:29:45;1.02;;;0.10;;
71164;SDS011;58859;55.132;-1.586;2023-08-21T13:32:11;0.37;;;0.20;;
71164;SDS011;58859;55.132;-1.586;2023-08-21T13:34:36;1.05;;;0.15;;
71164;SDS011;58859;55.132;-1.586;2023-08-21T13:37:02;0.33;;;0.10;;
71164;SDS011;58859;55.132;-1.586;2023-08-21T13:39:29;1.50;;;0.35;;
71164;SDS011;58859;55.132;-1.586;2023-08-21T13:41:55;1.50;;;0.10;;
71164;SDS011;58859;55.132;-1.586;2023-08-21T13:44:21;2.65;;;0.38;;
71164;SDS011;58859;55.132;-1.586;2023-08-21T13:46:46;0.40;;;0.20;;
71164;SDS011;58859;55.132;-1.586;2023-08-21T13:49:12;0.47;;;0.35;;
71164;SDS011;58859;55.132;-1.586;2023-08-21T13:51:37;0.20;;;0.20;;
71164;SDS011;58859;55.132;-1.586;2023-08-21T13:54:03;0.77;;;0.10;;
71164;SDS011;58859;55.132;-1.586;2023-08-21T13:56:28;1.20;;;0.20;;
71164;SDS011;58859;55.132;-1.586;2023-08-21T13:58:54;3.95;;;0.30;;
71164;SDS011;58859;55.132;-1.586;2023-08-21T14:01:19;0.47;;;0.10;;
71164;SDS011;58859;55.132;-1.586;2023-08-21T14:03:45;1.20;;;0.20;;
71164;SDS011;58859;55.132;-1.586;2023-08-21T14:06:11;1.83;;;0.40;;
71164;SDS011;58859;55.132;-1.586;2023-08-21T14:08:37;1.13;;;0.20;;
71164;SDS011;58859;55.132;-1.586;2023-08-21T14:11:03;1.23;;;0.20;;
71164;SDS011;58859;55.132;-1.586;2023-08-21T14:13:29;0.73;;;0.30;;
71164;SDS011;58859;55.132;-1.586;2023-08-21T14:15:54;1.37;;;0.30;;
71164;SDS011;58859;55.132;-1.586;2023-08-21T14:18:20;1.47;;;0.20;;
71164;SDS011;58859;55.132;-1.586;2023-08-21T14:20:45;0.95;;;0.10;;
71164;SDS011;58859;55.132;-1.586;2023-08-21T14:23:11;2.53;;;0.20;;
71164;SDS011;58859;55.132;-1.586;2023-08-21T14:25:37;0.23;;;0.10;;
71164;SDS011;58859;55.132;-1.586;2023-08-21T14:28:02;0.83;;;0.10;;
71164;SDS011;58859;55.132;-1.586;2023-08-21T14:30:28;0.95;;;0.17;;
71164;SDS011;58859;55.132;-1.586;2023-08-21T14:32:54;0.65;;;0.22;;
71164;SDS011;58859;55.132;-1.586;2023-08-21T14:35:19;3.27;;;0.20;;
71164;SDS011;58859;55.132;-1.586;2023-08-21T14:37:45;1.95;;;0.20;;
71164;SDS011;58859;55.132;-1.586;2023-08-21T14:40:11;1.20;;;0.27;;
71164;SDS011;58859;55.132;-1.586;2023-08-21T14:42:37;1.45;;;0.17;;